Time;durP1;ratioP1;P1;durP2;ratioP2;P2;SDS_P1;SDS_P2;PMS_P1;PMS_P2;Temp;Humidity;BMP_temperature;BMP_pressure;BME280_temperature;BME280_humidity;BME280_pressure;Samples;Min_cycle;Max_cycle;Signal;HPM_P1;HPM_P2
2021/12/03 00:01:20;;;;;;;61.33;6.03;;;;;;;;;;5071647;28;20215;-66
2021/12/03 00:03:47;;;;;;;60.10;5.38;;;;;;;;;;5069767;28;20584;-67
2021/12/03 00:06:15;;;;;;;61.53;5.13;;;;;;;;;;5071463;28;20300;-67
2021/12/03 00:08:42;;;;;;;61.88;6.00;;;;;;;;;;5071003;28;20866;-67
2021/12/03 00:11:12;;;;;;;63.47;5.68;;;;;;;;;;5071654;28;20585;-66
2021/12/03 00:13:40;;;;;;;61.80;5.72;;;;;;;;;;5071489;28;20209;-65
2021/12/03 00:16:07;;;;;;;64.85;5.15;;;;;;;;;;5071454;28;20208;-67
2021/12/03 00:18:35;;;;;;;61.63;5.20;;;;;;;;;;5071088;28;20785;-66
2021/12/03 00:21:05;;;;;;;64.03;5.22;;;;;;;;;;5071127;28;20232;-66
2021/12/03 00:23:33;;;;;;;61.22;5.53;;;;;;;;;;5071327;28;20209;-66
2021/12/03 00:26:01;;;;;;;59.63;4.70;;;;;;;;;;5071338;28;20205;-67
2021/12/03 00:28:30;;;;;;;61.55;5.65;;;;;;;;;;5071004;28;20220;-66
2021/12/03 00:30:57;;;;;;;61.50;5.13;;;;;;;;;;5071337;28;20208;-66
2021/12/03 00:33:25;;;;;;;60.63;5.50;;;;;;;;;;5071279;28;20205;-67
2021/12/03 00:35:52;;;;;;;61.28;5.40;;;;;;;;;;5069218;28;20303;-66
2021/12/03 00:38:20;;;;;;;62.92;6.90;;;;;;;;;;5071047;28;20233;-66
2021/12/03 00:40:47;;;;;;;61.30;5.10;;;;;;;;;;5071146;28;20321;-67
2021/12/03 00:43:14;;;;;;;62.00;6.45;;;;;;;;;;5072340;28;20295;-67
2021/12/03 00:45:45;;;;;;;63.45;6.05;;;;;;;;;;5074846;28;20299;-67
2021/12/03 00:48:12;;;;;;;62.08;6.13;;;;;;;;;;5074483;28;20236;-67
2021/12/03 00:50:39;;;;;;;62.22;5.55;;;;;;;;;;5074930;28;20627;-66
2021/12/03 00:53:06;;;;;;;61.88;5.65;;;;;;;;;;5074995;28;20582;-67
2021/12/03 00:55:34;;;;;;;62.45;6.05;;;;;;;;;;5074648;28;20562;-67
2021/12/03 00:58:01;;;;;;;62.20;6.35;;;;;;;;;;5074342;28;20459;-66
2021/12/03 01:00:30;;;;;;;61.58;5.82;;;;;;;;;;5074498;28;20227;-67
2021/12/03 01:03:00;;;;;;;69.15;7.22;;;;;;;;;;5074348;28;20209;-66
2021/12/03 01:05:27;;;;;;;61.63;5.85;;;;;;;;;;5074572;28;20304;-66
2021/12/03 01:07:55;;;;;;;63.40;6.03;;;;;;;;;;5060668;28;20214;-67
2021/12/03 01:10:22;;;;;;;65.05;7.22;;;;;;;;;;5054250;28;20316;-67
2021/12/03 01:12:50;;;;;;;66.82;6.45;;;;;;;;;;5054889;28;20206;-66
2021/12/03 01:15:18;;;;;;;62.85;6.63;;;;;;;;;;5054120;28;20673;-67
2021/12/03 01:17:46;;;;;;;75.57;6.78;;;;;;;;;;5054081;28;20588;-66
2021/12/03 01:20:14;;;;;;;64.32;6.63;;;;;;;;;;5054070;28;20788;-67
2021/12/03 01:22:42;;;;;;;64.47;5.85;;;;;;;;;;5054207;28;20212;-66
2021/12/03 01:25:10;;;;;;;62.83;6.50;;;;;;;;;;5054151;28;20460;-67
2021/12/03 01:27:38;;;;;;;63.80;6.40;;;;;;;;;;5053807;28;20828;-67
2021/12/03 01:30:06;;;;;;;61.65;6.15;;;;;;;;;;5054419;28;20228;-67
2021/12/03 01:32:33;;;;;;;64.07;6.70;;;;;;;;;;5054170;28;20205;-67
2021/12/03 01:35:00;;;;;;;63.65;5.97;;;;;;;;;;5054036;28;20205;-67
2021/12/03 01:37:28;;;;;;;63.42;7.00;;;;;;;;;;5053303;28;20301;-67
2021/12/03 01:39:56;;;;;;;68.20;6.88;;;;;;;;;;5065069;28;20311;-67
2021/12/03 01:42:23;;;;;;;62.47;7.05;;;;;;;;;;5073589;28;20205;-67
2021/12/03 01:44:50;;;;;;;71.20;7.18;;;;;;;;;;5073671;28;20672;-66
2021/12/03 01:47:17;;;;;;;64.30;5.95;;;;;;;;;;5073682;28;20205;-67
2021/12/03 01:49:44;;;;;;;64.00;7.05;;;;;;;;;;5073719;28;20644;-67
2021/12/03 01:52:11;;;;;;;63.90;6.65;;;;;;;;;;5073613;28;20243;-66
2021/12/03 01:54:40;;;;;;;63.65;7.25;;;;;;;;;;5072159;28;20205;-67
2021/12/03 01:57:07;;;;;;;64.20;6.90;;;;;;;;;;5073473;28;20211;-66
2021/12/03 01:59:35;;;;;;;64.72;6.90;;;;;;;;;;5073444;28;20225;-67
2021/12/03 02:02:02;;;;;;;64.57;7.10;;;;;;;;;;5073398;28;20299;-67
2021/12/03 02:04:29;;;;;;;63.45;6.53;;;;;;;;;;5073415;28;20208;-67
2021/12/03 02:06:56;;;;;;;63.42;7.10;;;;;;;;;;5073220;28;20216;-67
2021/12/03 02:09:23;;;;;;;68.93;7.97;;;;;;;;;;5072676;28;20224;-66
2021/12/03 02:11:52;;;;;;;61.38;5.72;;;;;;;;;;5071492;28;20577;-67
2021/12/03 02:14:20;;;;;;;63.58;6.75;;;;;;;;;;5073404;28;20227;-66
2021/12/03 02:16:48;;;;;;;62.97;6.35;;;;;;;;;;5073109;28;20201;-67
2021/12/03 02:19:15;;;;;;;65.25;7.18;;;;;;;;;;5072808;28;20229;-67
2021/12/03 02:21:44;;;;;;;63.10;7.03;;;;;;;;;;5072921;28;20318;-66
2021/12/03 02:24:12;;;;;;;62.33;6.97;;;;;;;;;;5072926;28;20205;-66
2021/12/03 02:26:41;;;;;;;64.45;7.03;;;;;;;;;;5073082;28;20211;-66
2021/12/03 02:29:09;;;;;;;61.60;6.93;;;;;;;;;;5072715;28;20295;-66
2021/12/03 02:31:36;;;;;;;64.13;7.65;;;;;;;;;;5072958;28;20235;-67
2021/12/03 02:34:04;;;;;;;64.38;6.75;;;;;;;;;;5072785;28;20209;-66
2021/12/03 02:36:31;;;;;;;64.22;7.35;;;;;;;;;;5072439;28;20653;-67
2021/12/03 02:39:00;;;;;;;65.28;8.00;;;;;;;;;;5072364;28;20229;-67
2021/12/03 02:41:27;;;;;;;63.90;7.38;;;;;;;;;;5072335;28;20316;-67
2021/12/03 02:43:54;;;;;;;67.38;7.43;;;;;;;;;;5071303;28;20226;-67
2021/12/03 02:46:22;;;;;;;65.20;7.40;;;;;;;;;;5069797;28;20208;-66
2021/12/03 02:48:49;;;;;;;67.40;7.20;;;;;;;;;;5072239;28;20225;-67
2021/12/03 02:51:16;;;;;;;65.78;8.18;;;;;;;;;;5072662;28;20205;-66
2021/12/03 02:53:43;;;;;;;64.28;7.60;;;;;;;;;;5072482;28;20211;-67
2021/12/03 02:56:12;;;;;;;65.25;8.18;;;;;;;;;;5072429;28;20205;-66
2021/12/03 02:58:39;;;;;;;65.35;7.68;;;;;;;;;;5072028;28;20229;-67
2021/12/03 03:01:07;;;;;;;65.75;7.80;;;;;;;;;;5072371;28;20323;-67
2021/12/03 03:03:34;;;;;;;62.97;7.00;;;;;;;;;;5072501;28;20200;-66
2021/12/03 03:06:02;;;;;;;64.40;7.75;;;;;;;;;;5071726;28;20296;-66
2021/12/03 03:08:30;;;;;;;64.50;7.30;;;;;;;;;;5071815;28;20312;-66
2021/12/03 03:10:58;;;;;;;66.03;7.85;;;;;;;;;;5072662;28;20197;-66
2021/12/03 03:13:27;;;;;;;63.22;6.68;;;;;;;;;;5071785;28;20258;-66
2021/12/03 03:15:54;;;;;;;62.13;6.70;;;;;;;;;;5070142;28;20205;-66
2021/12/03 03:18:22;;;;;;;67.57;8.40;;;;;;;;;;5071654;28;20713;-67
2021/12/03 03:20:49;;;;;;;64.00;7.72;;;;;;;;;;5071993;28;20227;-67
2021/12/03 03:23:18;;;;;;;68.88;7.15;;;;;;;;;;5071976;28;20841;-67
2021/12/03 03:25:45;;;;;;;65.13;7.30;;;;;;;;;;5071851;28;20209;-66
2021/12/03 03:28:13;;;;;;;65.88;8.80;;;;;;;;;;5071512;28;20205;-66
2021/12/03 03:30:43;;;;;;;67.05;8.40;;;;;;;;;;5072109;28;20748;-67
2021/12/03 03:33:10;;;;;;;66.57;8.68;;;;;;;;;;5072079;28;20628;-66
2021/12/03 03:35:38;;;;;;;68.00;7.75;;;;;;;;;;5071875;28;20304;-66
2021/12/03 03:38:05;;;;;;;64.57;7.78;;;;;;;;;;5071485;28;20208;-66
2021/12/03 03:40:32;;;;;;;65.25;8.15;;;;;;;;;;5071609;28;20221;-66
2021/12/03 03:43:00;;;;;;;66.70;8.52;;;;;;;;;;5071666;28;20201;-66
2021/12/03 03:45:27;;;;;;;64.68;8.02;;;;;;;;;;5071637;28;20205;-66
2021/12/03 03:47:56;;;;;;;66.25;8.23;;;;;;;;;;5069431;28;20208;-67
2021/12/03 03:50:24;;;;;;;63.85;6.90;;;;;;;;;;5071603;28;20221;-66
2021/12/03 03:52:52;;;;;;;67.20;8.05;;;;;;;;;;5071655;28;20204;-66
2021/12/03 03:55:20;;;;;;;71.55;8.40;;;;;;;;;;5071807;28;20219;-66
2021/12/03 03:57:47;;;;;;;65.05;8.00;;;;;;;;;;5071599;28;20205;-66
2021/12/03 04:00:16;;;;;;;63.83;7.55;;;;;;;;;;5071552;28;20221;-66
2021/12/03 04:02:43;;;;;;;66.22;6.97;;;;;;;;;;5071409;28;20216;-66
2021/12/03 04:05:12;;;;;;;64.93;7.63;;;;;;;;;;5071558;28;20205;-66
2021/12/03 04:07:40;;;;;;;67.03;8.00;;;;;;;;;;5071150;28;20204;-66
2021/12/03 04:10:08;;;;;;;66.25;7.55;;;;;;;;;;5071633;28;20229;-66
2021/12/03 04:12:35;;;;;;;64.15;7.68;;;;;;;;;;5071402;28;20207;-66
2021/12/03 04:15:02;;;;;;;67.45;8.48;;;;;;;;;;5071447;28;20295;-66
2021/12/03 04:17:29;;;;;;;65.30;8.60;;;;;;;;;;5069096;28;20267;-66
2021/12/03 04:19:56;;;;;;;66.40;8.23;;;;;;;;;;5075228;28;20228;-66
2021/12/03 04:22:25;;;;;;;63.20;7.90;;;;;;;;;;5075173;28;21010;-66
2021/12/03 04:24:53;;;;;;;65.90;8.40;;;;;;;;;;5075409;28;20204;-66
2021/12/03 04:27:20;;;;;;;65.03;8.13;;;;;;;;;;5075163;28;20204;-66
2021/12/03 04:29:47;;;;;;;65.40;8.77;;;;;;;;;;5075385;28;20231;-66
2021/12/03 04:32:14;;;;;;;73.57;9.15;;;;;;;;;;5075289;28;20293;-66
2021/12/03 04:34:42;;;;;;;68.70;7.85;;;;;;;;;;5074845;28;20205;-66
2021/12/03 04:37:09;;;;;;;65.05;7.32;;;;;;;;;;5075098;28;20291;-66
2021/12/03 04:39:37;;;;;;;65.68;7.65;;;;;;;;;;5074966;28;20312;-66
2021/12/03 04:42:05;;;;;;;62.92;7.50;;;;;;;;;;5074996;28;20225;-66
2021/12/03 04:44:34;;;;;;;63.83;7.85;;;;;;;;;;5074960;28;20292;-66
2021/12/03 04:47:01;;;;;;;68.75;7.45;;;;;;;;;;5075132;28;20208;-66
2021/12/03 04:49:29;;;;;;;65.13;8.18;;;;;;;;;;5074170;28;20507;-65
2021/12/03 04:51:56;;;;;;;66.75;9.32;;;;;;;;;;5073974;28;20200;-66
2021/12/03 04:54:24;;;;;;;66.18;8.75;;;;;;;;;;5074751;28;20209;-66
2021/12/03 04:56:52;;;;;;;67.28;8.88;;;;;;;;;;5074722;28;20204;-66
2021/12/03 04:59:19;;;;;;;66.15;8.63;;;;;;;;;;5074415;28;20251;-66
2021/12/03 05:01:46;;;;;;;66.95;9.52;;;;;;;;;;5078612;28;20252;-67
2021/12/03 05:04:13;;;;;;;66.40;9.30;;;;;;;;;;5080004;28;20212;-66
2021/12/03 05:06:54;;;;;;;65.80;7.80;;;;;;;;;;5081415;28;20280;-66
2021/12/03 05:09:23;;;;;;;66.97;9.73;;;;;;;;;;5080853;28;20256;-66
2021/12/03 05:11:50;;;;;;;65.93;8.85;;;;;;;;;;5082116;28;20208;-66
2021/12/03 05:14:19;;;;;;;67.35;7.55;;;;;;;;;;5081923;28;20232;-66
2021/12/03 05:16:48;;;;;;;66.47;7.93;;;;;;;;;;5082761;28;20659;-66
2021/12/03 05:19:16;;;;;;;65.97;8.07;;;;;;;;;;5081662;28;20738;-66
2021/12/03 05:21:43;;;;;;;64.97;8.25;;;;;;;;;;5079042;28;20250;-66
2021/12/03 05:24:10;;;;;;;65.05;7.60;;;;;;;;;;5082326;28;20204;-66
2021/12/03 05:26:38;;;;;;;64.75;7.93;;;;;;;;;;5082222;28;20220;-67
2021/12/03 05:29:06;;;;;;;63.17;6.97;;;;;;;;;;5081722;28;20261;-66
2021/12/03 05:31:35;;;;;;;65.30;8.75;;;;;;;;;;5080328;28;20287;-67
2021/12/03 05:34:02;;;;;;;66.72;8.50;;;;;;;;;;5080008;28;20745;-66
2021/12/03 05:36:30;;;;;;;66.43;8.57;;;;;;;;;;5079954;28;20291;-66
2021/12/03 05:38:57;;;;;;;73.20;10.70;;;;;;;;;;5080616;28;20312;-66
2021/12/03 05:41:24;;;;;;;73.80;11.23;;;;;;;;;;5079890;28;20285;-66
2021/12/03 05:43:51;;;;;;;74.95;13.45;;;;;;;;;;5081651;28;20208;-66
2021/12/03 05:46:19;;;;;;;78.03;13.18;;;;;;;;;;5080498;28;20232;-67
2021/12/03 05:48:47;;;;;;;71.57;11.57;;;;;;;;;;5079666;28;20293;-67
2021/12/03 05:51:14;;;;;;;71.05;11.88;;;;;;;;;;5080376;28;20636;-67
2021/12/03 05:53:41;;;;;;;69.55;9.90;;;;;;;;;;5077363;28;20268;-67
2021/12/03 05:56:08;;;;;;;66.65;9.10;;;;;;;;;;5079608;28;20251;-66
2021/12/03 05:58:36;;;;;;;66.20;8.98;;;;;;;;;;5075457;28;20298;-66
2021/12/03 06:01:03;;;;;;;65.72;8.50;;;;;;;;;;5074019;28;20220;-66
2021/12/03 06:03:30;;;;;;;67.88;8.45;;;;;;;;;;5073936;28;20208;-66
2021/12/03 06:05:59;;;;;;;67.50;8.35;;;;;;;;;;5073891;28;20292;-69
2021/12/03 06:08:26;;;;;;;70.18;8.32;;;;;;;;;;5073832;28;20315;-66
2021/12/03 06:10:53;;;;;;;68.75;9.15;;;;;;;;;;5073807;28;20207;-66
2021/12/03 06:13:20;;;;;;;66.85;8.85;;;;;;;;;;5073685;28;20205;-66
2021/12/03 06:15:47;;;;;;;64.43;8.48;;;;;;;;;;5073366;28;20215;-66
2021/12/03 06:18:14;;;;;;;66.40;8.50;;;;;;;;;;5072982;28;20211;-66
2021/12/03 06:20:41;;;;;;;64.80;7.47;;;;;;;;;;5073207;28;20224;-66
2021/12/03 06:23:10;;;;;;;78.38;8.75;;;;;;;;;;5074409;28;20621;-66
2021/12/03 06:25:37;;;;;;;65.53;7.82;;;;;;;;;;5064846;28;20633;-66
2021/12/03 06:28:05;;;;;;;64.47;7.10;;;;;;;;;;5052762;28;20213;-66
2021/12/03 06:30:32;;;;;;;63.95;8.15;;;;;;;;;;5054646;28;20216;-66
2021/12/03 06:32:59;;;;;;;64.30;7.25;;;;;;;;;;5062418;28;20292;-66
2021/12/03 06:35:26;;;;;;;64.45;7.53;;;;;;;;;;5062185;28;20288;-67
2021/12/03 06:37:54;;;;;;;65.10;7.40;;;;;;;;;;5056568;28;20292;-66
2021/12/03 06:40:23;;;;;;;62.83;6.55;;;;;;;;;;5052403;28;20232;-67
2021/12/03 06:42:50;;;;;;;63.40;7.93;;;;;;;;;;5053469;28;20321;-66
2021/12/03 06:45:18;;;;;;;65.45;8.05;;;;;;;;;;5053640;28;20205;-66
2021/12/03 06:47:45;;;;;;;64.25;7.47;;;;;;;;;;5052936;28;20637;-66
2021/12/03 06:50:17;;;;;;;64.72;8.00;;;;;;;;;;5053298;28;20240;-66
2021/12/03 06:52:46;;;;;;;65.95;8.20;;;;;;;;;;5054182;28;20201;-67
2021/12/03 06:55:14;;;;;;;65.25;7.22;;;;;;;;;;5053424;28;20647;-66
2021/12/03 06:57:44;;;;;;;70.70;8.05;;;;;;;;;;5052417;28;20205;-66
2021/12/03 07:00:12;;;;;;;62.95;7.82;;;;;;;;;;5052479;28;20221;-66
2021/12/03 07:02:40;;;;;;;68.72;9.48;;;;;;;;;;5052538;28;20222;-66
2021/12/03 07:05:07;;;;;;;63.70;7.65;;;;;;;;;;5072684;28;20296;-66
2021/12/03 07:07:34;;;;;;;65.53;7.80;;;;;;;;;;5072456;28;20510;-66
2021/12/03 07:10:02;;;;;;;63.95;7.07;;;;;;;;;;5072402;28;20224;-66
2021/12/03 07:12:29;;;;;;;66.45;8.18;;;;;;;;;;5072316;28;20292;-66
2021/12/03 07:14:58;;;;;;;63.03;6.68;;;;;;;;;;5072079;28;20216;-66
2021/12/03 07:17:29;;;;;;;63.50;6.70;;;;;;;;;;5072305;28;20699;-66
2021/12/03 07:19:57;;;;;;;64.30;7.35;;;;;;;;;;5072468;28;20236;-66
2021/12/03 07:22:25;;;;;;;63.78;6.50;;;;;;;;;;5072210;28;20270;-66
2021/12/03 07:24:52;;;;;;;65.55;7.70;;;;;;;;;;5072103;28;20223;-66
2021/12/03 07:27:20;;;;;;;63.42;7.10;;;;;;;;;;5071704;28;20232;-66
2021/12/03 07:29:48;;;;;;;64.10;6.82;;;;;;;;;;5071797;28;20319;-66
2021/12/03 07:32:17;;;;;;;63.60;6.30;;;;;;;;;;5072025;28;20632;-66
2021/12/03 07:34:44;;;;;;;66.30;7.93;;;;;;;;;;5071740;28;20587;-66
2021/12/03 07:37:12;;;;;;;64.00;6.70;;;;;;;;;;5071572;28;20304;-66
2021/12/03 07:39:39;;;;;;;64.60;7.40;;;;;;;;;;5069134;28;20633;-65
2021/12/03 07:42:07;;;;;;;63.95;6.97;;;;;;;;;;5051589;28;20705;-66
2021/12/03 07:44:35;;;;;;;63.00;6.65;;;;;;;;;;5051881;28;20240;-66
2021/12/03 07:47:02;;;;;;;67.68;8.38;;;;;;;;;;5051778;28;20622;-66
2021/12/03 07:49:30;;;;;;;63.55;7.00;;;;;;;;;;5051319;28;20788;-66
2021/12/03 07:51:57;;;;;;;62.45;6.45;;;;;;;;;;5051548;28;20235;-66
2021/12/03 07:54:25;;;;;;;62.05;6.60;;;;;;;;;;5051606;28;20206;-65
2021/12/03 07:56:52;;;;;;;63.88;6.97;;;;;;;;;;5051296;28;20215;-65
2021/12/03 07:59:19;;;;;;;64.05;6.75;;;;;;;;;;5051391;28;20320;-65
2021/12/03 08:01:47;;;;;;;62.47;6.25;;;;;;;;;;5051481;28;20224;-65
2021/12/03 08:04:14;;;;;;;64.20;6.55;;;;;;;;;;5051666;28;20215;-66
2021/12/03 08:06:45;;;;;;;64.70;7.05;;;;;;;;;;5051463;28;20294;-66
2021/12/03 08:09:12;;;;;;;63.33;6.10;;;;;;;;;;5051534;28;20233;-66
2021/12/03 08:11:40;;;;;;;64.10;7.38;;;;;;;;;;5052289;28;20209;-66
2021/12/03 08:14:07;;;;;;;62.20;6.38;;;;;;;;;;5071683;28;20296;-66
2021/12/03 08:16:35;;;;;;;66.78;7.35;;;;;;;;;;5071418;28;20204;-66
2021/12/03 08:19:02;;;;;;;64.95;7.35;;;;;;;;;;5071088;28;20736;-66
2021/12/03 08:21:30;;;;;;;72.30;8.05;;;;;;;;;;5071416;28;20208;-66
2021/12/03 08:24:00;;;;;;;64.28;6.97;;;;;;;;;;5071205;28;20212;-66
2021/12/03 08:26:27;;;;;;;65.75;8.10;;;;;;;;;;5071245;28;20669;-66
2021/12/03 08:28:54;;;;;;;61.78;6.60;;;;;;;;;;5071068;28;20311;-66
2021/12/03 08:31:21;;;;;;;64.00;7.28;;;;;;;;;;5071421;28;20216;-66
2021/12/03 08:33:48;;;;;;;64.03;7.68;;;;;;;;;;5071154;28;20205;-66
2021/12/03 08:36:16;;;;;;;62.17;6.40;;;;;;;;;;5071184;28;20254;-66
2021/12/03 08:38:43;;;;;;;65.38;6.22;;;;;;;;;;5070698;28;20228;-66
2021/12/03 08:41:16;;;;;;;62.75;6.60;;;;;;;;;;5071386;28;20291;-66
2021/12/03 08:43:43;;;;;;;62.75;6.60;;;;;;;;;;5068939;28;20274;-66
2021/12/03 08:46:14;;;;;;;64.60;6.05;;;;;;;;;;5071187;28;20638;-66
2021/12/03 08:48:47;;;;;;;64.72;6.63;;;;;;;;;;5070685;28;20294;-65
2021/12/03 08:51:26;;;;;;;67.10;6.30;;;;;;;;;;5071328;28;20205;-64
2021/12/03 08:56:39;;;;;;;63.13;6.70;;;;;;;;;;5071043;28;20200;-65
2021/12/03 08:59:07;;;;;;;62.67;6.50;;;;;;;;;;5070569;28;20708;-64
2021/12/03 09:01:34;;;;;;;64.47;7.38;;;;;;;;;;5070789;28;20220;-64
2021/12/03 09:04:01;;;;;;;61.42;6.20;;;;;;;;;;5072139;28;20312;-64
2021/12/03 09:06:28;;;;;;;62.75;5.57;;;;;;;;;;5074509;28;20678;-65
2021/12/03 09:08:55;;;;;;;62.63;6.03;;;;;;;;;;5074100;28;20235;-65
2021/12/03 09:11:24;;;;;;;61.40;5.63;;;;;;;;;;5074501;28;20207;-64
2021/12/03 09:13:53;;;;;;;62.20;5.35;;;;;;;;;;5074371;28;20209;-64
2021/12/03 09:16:21;;;;;;;61.25;5.35;;;;;;;;;;5072734;28;20542;-65
2021/12/03 09:18:50;;;;;;;61.28;5.97;;;;;;;;;;5074181;28;20324;-65
2021/12/03 09:21:21;;;;;;;62.65;6.00;;;;;;;;;;5074304;28;20251;-64
2021/12/03 09:24:07;;;;;;;60.05;4.95;;;;;;;;;;5074233;28;20319;-65
2021/12/03 09:26:39;;;;;;;62.35;5.82;;;;;;;;;;5074078;28;20244;-65
2021/12/03 09:29:09;;;;;;;61.42;5.65;;;;;;;;;;5073820;28;20716;-65
2021/12/03 09:31:40;;;;;;;61.80;5.18;;;;;;;;;;5074284;28;20278;-66
2021/12/03 09:34:09;;;;;;;61.42;5.03;;;;;;;;;;5074103;28;20205;-65
2021/12/03 09:36:39;;;;;;;61.10;4.82;;;;;;;;;;5073896;28;20209;-65
2021/12/03 09:39:07;;;;;;;61.28;5.22;;;;;;;;;;5073898;28;20263;-65
2021/12/03 09:41:34;;;;;;;60.22;4.30;;;;;;;;;;5074070;28;20251;-65
2021/12/03 09:44:01;;;;;;;62.28;5.68;;;;;;;;;;5073696;28;20312;-65
2021/12/03 09:46:30;;;;;;;61.35;4.97;;;;;;;;;;5072033;28;20201;-64
2021/12/03 09:51:50;;;;;;;62.78;4.75;;;;;;;;;;5073775;28;20203;-64
2021/12/03 09:54:24;;;;;;;60.55;4.95;;;;;;;;;;5073972;28;20669;-64
2021/12/03 09:56:55;;;;;;;60.67;4.75;;;;;;;;;;5073404;28;20212;-64
2021/12/03 10:02:25;;;;;;;62.63;4.20;;;;;;;;;;5073402;28;20697;-64
2021/12/03 10:05:14;;;;;;;59.07;3.90;;;;;;;;;;5073621;28;20205;-64
2021/12/03 10:13:21;;;;;;;59.65;4.03;;;;;;;;;;5073424;28;20201;-64
2021/12/03 10:15:58;;;;;;;58.83;3.65;;;;;;;;;;5071888;28;20212;-64
2021/12/03 10:18:40;;;;;;;59.72;4.13;;;;;;;;;;5071092;28;20229;-64
2021/12/03 10:21:16;;;;;;;58.80;3.80;;;;;;;;;;5073038;28;20208;-64
2021/12/03 10:27:16;;;;;;;64.40;4.38;;;;;;;;;;5072897;28;20205;-64
2021/12/03 10:29:52;;;;;;;62.28;3.67;;;;;;;;;;5072900;28;20228;-63
2021/12/03 10:32:39;;;;;;;62.05;4.78;;;;;;;;;;5073035;28;20709;-64
2021/12/03 10:41:03;;;;;;;59.33;4.35;;;;;;;;;;5055155;28;20201;-64
2021/12/03 10:46:26;;;;;;;59.40;4.18;;;;;;;;;;5072790;28;20196;-65
2021/12/03 10:48:59;;;;;;;60.05;4.15;;;;;;;;;;5070577;28;20225;-64
2021/12/03 10:51:42;;;;;;;60.15;3.92;;;;;;;;;;5052559;28;20238;-65
2021/12/03 10:54:18;;;;;;;60.75;5.28;;;;;;;;;;5053034;28;20206;-65
2021/12/03 10:57:05;;;;;;;61.38;4.20;;;;;;;;;;5052617;28;20205;-64
2021/12/03 10:59:55;;;;;;;60.67;4.33;;;;;;;;;;5052379;28;20731;-65
2021/12/03 11:02:57;;;;;;;61.97;4.63;;;;;;;;;;5051967;28;20540;-65
2021/12/03 13:10:25;;;;;;;59.47;4.55;;;;;;;;;;5048654;28;20805;-66
2021/12/03 13:18:41;;;;;;;60.70;4.30;;;;;;;;;;5036185;28;20201;-65
2021/12/03 13:21:42;;;;;;;62.70;4.00;;;;;;;;;;5054454;28;20405;-66
2021/12/03 14:00:36;;;;;;;60.03;4.43;;;;;;;;;;5073557;28;20217;-65
2021/12/03 14:39:45;;;;;;;64.72;5.22;;;;;;;;;;5052157;28;20213;-65
2021/12/03 14:42:46;;;;;;;59.85;3.75;;;;;;;;;;5051953;28;20210;-66
2021/12/03 14:45:28;;;;;;;60.40;4.25;;;;;;;;;;5052484;28;20301;-65
2021/12/03 14:48:20;;;;;;;60.88;5.15;;;;;;;;;;5052519;28;20210;-65
2021/12/03 14:56:15;;;;;;;60.28;4.78;;;;;;;;;;5052517;28;20196;-65
2021/12/03 14:58:49;;;;;;;61.33;4.20;;;;;;;;;;5052197;28;20222;-65
2021/12/03 15:01:23;;;;;;;61.03;4.32;;;;;;;;;;5052055;28;20598;-66
2021/12/03 15:04:11;;;;;;;65.85;4.85;;;;;;;;;;5052185;28;20225;-66
2021/12/03 15:06:39;;;;;;;60.55;4.00;;;;;;;;;;5052605;28;20292;-65
2021/12/03 15:09:12;;;;;;;62.50;4.78;;;;;;;;;;5052039;28;20248;-65
2021/12/03 15:25:25;;;;;;;62.63;4.72;;;;;;;;;;5071952;28;20200;-65
2021/12/03 15:28:11;;;;;;;60.55;4.53;;;;;;;;;;5071906;28;20244;-65
2021/12/03 15:30:51;;;;;;;58.67;3.50;;;;;;;;;;5071906;28;20205;-65
2021/12/03 15:33:27;;;;;;;59.33;3.95;;;;;;;;;;5071860;28;20196;-65
2021/12/03 15:35:59;;;;;;;59.15;4.18;;;;;;;;;;5071855;28;20208;-65
2021/12/03 15:38:42;;;;;;;59.40;4.25;;;;;;;;;;5071584;28;20576;-65
2021/12/03 15:51:44;;;;;;;59.45;3.90;;;;;;;;;;5071894;28;20292;-65
2021/12/03 16:03:59;;;;;;;63.65;5.85;;;;;;;;;;5046528;28;20320;-64
2021/12/03 16:06:39;;;;;;;61.95;6.82;;;;;;;;;;5051230;28;20232;-65
2021/12/03 16:09:14;;;;;;;63.25;5.90;;;;;;;;;;5051426;28;20697;-66
2021/12/03 16:11:46;;;;;;;66.35;6.88;;;;;;;;;;5051449;28;20681;-65
2021/12/03 16:14:39;;;;;;;65.03;7.40;;;;;;;;;;5052971;28;20212;-65
2021/12/03 16:26:05;;;;;;;63.10;5.88;;;;;;;;;;5072952;28;20200;-66
2021/12/03 16:45:45;;;;;;;60.05;4.55;;;;;;;;;;5075066;28;20195;-66
2021/12/03 16:51:22;;;;;;;62.70;5.63;;;;;;;;;;5055194;28;20198;-66
2021/12/03 16:53:52;;;;;;;59.70;4.63;;;;;;;;;;5054967;28;20288;-66
2021/12/03 16:56:23;;;;;;;63.55;4.40;;;;;;;;;;5054745;28;20304;-65
2021/12/03 16:58:51;;;;;;;63.45;4.43;;;;;;;;;;5052766;28;20259;-66
2021/12/03 17:01:24;;;;;;;67.25;5.43;;;;;;;;;;5054811;28;20241;-66
2021/12/03 17:03:56;;;;;;;59.97;4.28;;;;;;;;;;5054727;28;20605;-66
2021/12/03 17:09:16;;;;;;;60.17;4.28;;;;;;;;;;5054391;28;20535;-66
2021/12/03 17:45:19;;;;;;;59.92;4.13;;;;;;;;;;5053969;28;20283;-65
2021/12/03 17:56:12;;;;;;;61.40;3.90;;;;;;;;;;5070265;28;20197;-65
2021/12/03 17:58:42;;;;;;;61.42;4.75;;;;;;;;;;5073315;28;20229;-65
2021/12/03 18:01:14;;;;;;;59.22;4.05;;;;;;;;;;5073425;28;20213;-65
2021/12/03 18:09:26;;;;;;;59.90;4.45;;;;;;;;;;5073129;28;20217;-65
2021/12/03 18:15:18;;;;;;;64.40;5.45;;;;;;;;;;5073348;28;20337;-65
2021/12/03 18:51:15;;;;;;;63.95;5.97;;;;;;;;;;5052435;28;20658;-65
2021/12/03 18:53:59;;;;;;;63.20;6.07;;;;;;;;;;5052493;28;20202;-65
2021/12/03 18:56:32;;;;;;;62.17;6.43;;;;;;;;;;5052464;28;20677;-65
2021/12/03 18:59:03;;;;;;;64.18;6.65;;;;;;;;;;5052247;28;20263;-65
2021/12/03 19:01:32;;;;;;;63.90;6.50;;;;;;;;;;5067289;28;20213;-65
2021/12/03 19:06:43;;;;;;;61.60;5.72;;;;;;;;;;5070355;28;20209;-64
2021/12/03 19:09:14;;;;;;;61.50;5.63;;;;;;;;;;5072162;28;20224;-65
2021/12/03 19:11:48;;;;;;;61.78;6.72;;;;;;;;;;5072286;28;20209;-65
2021/12/03 19:14:16;;;;;;;63.28;6.13;;;;;;;;;;5072499;28;20249;-65
2021/12/03 19:16:43;;;;;;;61.08;5.82;;;;;;;;;;5072371;28;20209;-66
2021/12/03 19:19:13;;;;;;;62.67;6.05;;;;;;;;;;5071931;28;20224;-65
2021/12/03 19:21:40;;;;;;;63.80;6.13;;;;;;;;;;5072216;28;20307;-65
2021/12/03 19:24:09;;;;;;;61.28;5.15;;;;;;;;;;5070197;28;20633;-65
2021/12/03 19:26:42;;;;;;;61.95;6.00;;;;;;;;;;5071953;28;20215;-65
2021/12/03 19:29:11;;;;;;;62.20;6.05;;;;;;;;;;5071774;28;20590;-65
2021/12/03 19:31:39;;;;;;;62.65;6.07;;;;;;;;;;5072148;28;20201;-65
2021/12/03 19:34:06;;;;;;;61.03;6.10;;;;;;;;;;5072023;28;20212;-65
2021/12/03 19:36:38;;;;;;;63.13;6.10;;;;;;;;;;5071921;28;20263;-65
2021/12/03 19:39:06;;;;;;;64.90;5.88;;;;;;;;;;5070297;28;20449;-65
2021/12/03 19:41:37;;;;;;;62.90;6.38;;;;;;;;;;5071747;28;20203;-65
2021/12/03 19:44:09;;;;;;;61.65;6.50;;;;;;;;;;5071562;28;20738;-65
2021/12/03 19:46:39;;;;;;;64.53;6.30;;;;;;;;;;5071189;28;20453;-65
2021/12/03 19:49:11;;;;;;;63.08;6.53;;;;;;;;;;5067758;28;20574;-65
2021/12/03 19:51:44;;;;;;;62.92;6.82;;;;;;;;;;5051090;28;20753;-65
2021/12/03 19:54:12;;;;;;;64.85;6.90;;;;;;;;;;5051355;28;20666;-65
2021/12/03 19:56:40;;;;;;;63.83;6.55;;;;;;;;;;5051664;28;20472;-65
2021/12/03 19:59:09;;;;;;;64.55;7.45;;;;;;;;;;5051289;28;20788;-65
2021/12/03 20:01:37;;;;;;;62.10;6.22;;;;;;;;;;5051401;28;20703;-65
2021/12/03 20:04:04;;;;;;;70.88;9.23;;;;;;;;;;5051219;28;20225;-65
2021/12/03 20:06:32;;;;;;;60.40;5.10;;;;;;;;;;5051137;28;20300;-65
2021/12/03 20:09:01;;;;;;;61.92;5.65;;;;;;;;;;5051450;28;20248;-65
2021/12/03 20:11:37;;;;;;;62.35;5.60;;;;;;;;;;5051562;28;20231;-65
2021/12/03 20:14:06;;;;;;;62.40;5.43;;;;;;;;;;5051643;28;20201;-65
2021/12/03 20:16:37;;;;;;;64.78;6.28;;;;;;;;;;5051302;28;20690;-65
2021/12/03 20:19:09;;;;;;;61.58;5.13;;;;;;;;;;5064396;28;20217;-65
2021/12/03 20:21:40;;;;;;;65.47;6.10;;;;;;;;;;5063418;28;20247;-64
2021/12/03 20:24:21;;;;;;;62.63;6.20;;;;;;;;;;5051341;28;20606;-65
2021/12/03 20:26:53;;;;;;;61.45;5.78;;;;;;;;;;5051229;28;20205;-65
2021/12/03 20:29:23;;;;;;;62.13;5.93;;;;;;;;;;5051273;28;20261;-65
2021/12/03 20:32:09;;;;;;;61.35;4.60;;;;;;;;;;5051604;28;20205;-65
2021/12/03 20:34:48;;;;;;;65.75;5.72;;;;;;;;;;5051418;28;20214;-65
2021/12/03 20:37:18;;;;;;;67.30;5.55;;;;;;;;;;5051025;28;20282;-65
2021/12/03 20:39:47;;;;;;;60.97;5.18;;;;;;;;;;5051123;28;20232;-65
2021/12/03 20:42:19;;;;;;;60.50;5.45;;;;;;;;;;5051119;28;20305;-65
2021/12/03 20:44:58;;;;;;;61.45;4.95;;;;;;;;;;5051038;28;20225;-65
2021/12/03 20:50:34;;;;;;;63.85;6.82;;;;;;;;;;5046014;28;20229;-66
2021/12/03 20:53:24;;;;;;;62.60;5.45;;;;;;;;;;5050935;28;20673;-65
2021/12/03 21:09:38;;;;;;;61.45;5.40;;;;;;;;;;5074645;28;20224;-64
2021/12/03 21:12:07;;;;;;;61.85;5.55;;;;;;;;;;5074475;28;20211;-65
2021/12/03 21:14:34;;;;;;;58.55;4.60;;;;;;;;;;5074949;28;20196;-66
2021/12/03 21:17:14;;;;;;;62.25;5.97;;;;;;;;;;5074206;28;20204;-65
2021/12/03 21:19:46;;;;;;;59.63;4.80;;;;;;;;;;5074604;28;20599;-65
2021/12/03 21:22:15;;;;;;;64.45;5.55;;;;;;;;;;5074662;28;20590;-65
2021/12/03 21:24:44;;;;;;;60.88;5.30;;;;;;;;;;5074289;28;20256;-65
2021/12/03 21:27:15;;;;;;;60.45;5.20;;;;;;;;;;5073677;28;20255;-65
2021/12/03 21:29:59;;;;;;;67.28;6.13;;;;;;;;;;5054777;28;20261;-64